createdAt,value
2023-03-26T00:01:39.069Z,100.00
2023-03-26T00:04:08.702Z,100.00
2023-03-26T00:06:39.993Z,100.00
2023-03-26T00:09:09.677Z,100.00
2023-03-26T00:11:37.641Z,100.00
2023-03-26T00:14:09.943Z,100.00
2023-03-26T00:16:39.924Z,100.00
2023-03-26T00:19:10.770Z,100.00
2023-03-26T00:21:38.911Z,100.00
2023-03-26T00:24:09.000Z,100.00
2023-03-26T00:26:38.573Z,100.00
2023-03-26T00:29:10.576Z,100.00
2023-03-26T00:31:40.055Z,100.00
2023-03-26T00:34:10.954Z,100.00
2023-03-26T00:36:42.784Z,100.00
2023-03-26T00:39:11.063Z,100.00
2023-03-26T00:41:43.439Z,100.00
2023-03-26T00:44:13.045Z,100.00
2023-03-26T00:46:41.765Z,100.00
2023-03-26T00:49:14.933Z,100.00
2023-03-26T00:51:44.030Z,100.00
2023-03-26T00:54:12.230Z,100.00
2023-03-26T00:56:40.598Z,100.00
2023-03-26T00:59:11.942Z,100.00
2023-03-26T01:01:42.192Z,100.00
2023-03-26T01:04:28.758Z,100.00
2023-03-26T01:06:58.798Z,100.00
2023-03-26T01:09:32.959Z,100.00
2023-03-26T01:12:01.936Z,100.00
2023-03-26T01:14:32.655Z,100.00
2023-03-26T01:17:03.708Z,100.00
2023-03-26T01:19:38.285Z,100.00
2023-03-26T01:22:07.178Z,100.00
2023-03-26T01:24:36.750Z,100.00
2023-03-26T01:27:13.582Z,100.00
2023-03-26T01:29:44.800Z,100.00
2023-03-26T01:32:23.917Z,100.00
2023-03-26T01:35:00.488Z,100.00
2023-03-26T01:37:36.294Z,100.00
2023-03-26T01:40:10.730Z,100.00
2023-03-26T01:42:46.425Z,100.00
2023-03-26T01:45:17.193Z,100.00
2023-03-26T01:47:45.566Z,100.00
2023-03-26T01:50:13.969Z,100.00
2023-03-26T01:52:44.364Z,100.00
2023-03-26T01:55:14.709Z,100.00
2023-03-26T01:57:49.248Z,100.00
2023-03-26T02:00:26.066Z,100.00
2023-03-26T02:03:18.014Z,100.00
2023-03-26T02:05:52.205Z,100.00
2023-03-26T02:08:24.632Z,100.00
2023-03-26T02:10:57.833Z,100.00
2023-03-26T02:13:27.212Z,100.00
2023-03-26T02:15:57.018Z,100.00
2023-03-26T02:18:25.863Z,100.00
2023-03-26T02:20:54.503Z,100.00
2023-03-26T02:23:22.970Z,100.00
2023-03-26T02:25:53.310Z,100.00
2023-03-26T02:28:26.048Z,100.00
2023-03-26T02:30:57.945Z,100.00
2023-03-26T02:33:26.333Z,100.00
2023-03-26T02:35:54.583Z,100.00
2023-03-26T02:38:25.356Z,100.00
2023-03-26T02:40:55.085Z,100.00
2023-03-26T02:43:32.102Z,100.00
2023-03-26T02:46:01.123Z,100.00
2023-03-26T02:48:49.974Z,100.00
2023-03-26T02:51:26.077Z,100.00
2023-03-26T02:54:03.978Z,100.00
2023-03-26T02:56:58.328Z,100.00
2023-03-26T02:59:47.653Z,100.00
2023-03-26T03:02:44.531Z,100.00
2023-03-26T03:05:39.688Z,100.00
2023-03-26T03:08:28.234Z,100.00
2023-03-26T03:11:22.235Z,100.00
2023-03-26T03:13:52.648Z,100.00
2023-03-26T03:16:29.924Z,100.00
2023-03-26T03:19:06.404Z,100.00
2023-03-26T03:21:39.193Z,100.00
2023-03-26T03:24:10.069Z,100.00
2023-03-26T03:26:45.870Z,100.00
2023-03-26T03:29:27.332Z,100.00
2023-03-26T03:32:00.348Z,100.00
2023-03-26T03:34:49.968Z,100.00
2023-03-26T03:37:19.971Z,100.00
2023-03-26T03:39:53.037Z,100.00
2023-03-26T03:42:23.253Z,100.00
2023-03-26T03:44:54.350Z,100.00
2023-03-26T03:48:01.790Z,100.00
2023-03-26T03:50:40.964Z,100.00
2023-03-26T03:53:29.601Z,100.00
2023-03-26T03:56:04.811Z,100.00
2023-03-26T03:58:55.563Z,100.00
2023-03-26T04:01:31.894Z,100.00
2023-03-26T04:04:14.036Z,100.00
2023-03-26T04:06:55.692Z,100.00
2023-03-26T04:09:26.745Z,100.00
2023-03-26T04:12:00.134Z,100.00
2023-03-26T04:14:50.653Z,100.00
2023-03-26T04:17:22.256Z,100.00
2023-03-26T04:19:55.295Z,100.00
2023-03-26T04:22:36.670Z,100.00
2023-03-26T04:25:12.445Z,100.00
2023-03-26T04:27:55.851Z,100.00
2023-03-26T04:30:45.187Z,100.00
2023-03-26T04:33:29.302Z,100.00
2023-03-26T04:36:02.910Z,100.00
2023-03-26T04:38:38.677Z,100.00
2023-03-26T04:41:07.882Z,100.00
2023-03-26T04:43:57.029Z,100.00
2023-03-26T04:46:35.076Z,100.00
2023-03-26T04:49:15.861Z,100.00
2023-03-26T04:51:46.972Z,100.00
2023-03-26T04:54:37.165Z,100.00
2023-03-26T04:57:14.641Z,100.00
2023-03-26T05:00:01.411Z,100.00
2023-03-26T05:02:33.877Z,100.00
2023-03-26T05:05:02.920Z,100.00
2023-03-26T05:07:36.300Z,100.00
2023-03-26T05:10:05.564Z,100.00
2023-03-26T05:12:57.247Z,100.00
2023-03-26T05:15:32.406Z,100.00
2023-03-26T05:18:00.617Z,100.00
2023-03-26T05:20:33.386Z,100.00
2023-03-26T05:23:03.749Z,100.00
2023-03-26T05:25:36.589Z,100.00
2023-03-26T05:28:11.744Z,100.00
2023-03-26T05:30:48.581Z,100.00
2023-03-26T05:33:18.208Z,100.00
2023-03-26T05:36:15.494Z,100.00
2023-03-26T05:39:07.327Z,100.00
2023-03-26T05:41:54.576Z,100.00
2023-03-26T05:44:29.031Z,100.00
2023-03-26T05:47:05.000Z,100.00
2023-03-26T05:49:33.028Z,100.00
2023-03-26T05:52:04.194Z,100.00
2023-03-26T05:54:52.410Z,100.00
2023-03-26T05:57:39.617Z,100.00
2023-03-26T06:00:27.713Z,100.00
2023-03-26T06:02:57.302Z,100.00
2023-03-26T06:05:54.553Z,100.00
2023-03-26T06:08:41.649Z,100.00
2023-03-26T06:11:12.991Z,100.00
2023-03-26T06:13:41.754Z,100.00
2023-03-26T06:16:25.932Z,100.00
2023-03-26T06:19:17.750Z,100.00
2023-03-26T06:22:21.512Z,100.00
2023-03-26T06:25:11.134Z,100.00
2023-03-26T06:28:07.501Z,100.00
2023-03-26T06:30:50.460Z,100.00
2023-03-26T06:33:31.271Z,100.00
2023-03-26T06:36:01.010Z,100.00
2023-03-26T06:38:28.997Z,100.00
2023-03-26T06:41:02.934Z,100.00
2023-03-26T06:43:51.743Z,100.00
2023-03-26T06:46:39.279Z,100.00
2023-03-26T06:49:29.163Z,100.00
2023-03-26T06:52:16.259Z,100.00
2023-03-26T06:54:53.124Z,100.00
2023-03-26T06:57:54.690Z,100.00
2023-03-26T07:00:44.080Z,100.00
2023-03-26T07:03:31.324Z,100.00
2023-03-26T07:06:21.050Z,100.00
2023-03-26T07:09:08.732Z,100.00
2023-03-26T07:11:55.541Z,100.00
2023-03-26T07:14:42.027Z,100.00
2023-03-26T07:17:36.260Z,100.00
2023-03-26T07:20:13.076Z,100.00
2023-03-26T07:22:43.541Z,100.00
2023-03-26T07:25:18.426Z,100.00
2023-03-26T07:28:12.849Z,100.00
2023-03-26T07:31:08.903Z,100.00
2023-03-26T07:33:47.537Z,100.00
2023-03-26T07:36:27.921Z,100.00
2023-03-26T07:39:38.488Z,100.00
2023-03-26T07:42:34.576Z,100.00
2023-03-26T07:45:24.218Z,100.00
2023-03-26T07:48:14.128Z,100.00
2023-03-26T07:51:11.004Z,100.00
2023-03-26T07:53:52.346Z,100.00
2023-03-26T07:57:00.827Z,100.00
2023-03-26T07:59:37.962Z,100.00
2023-03-26T08:02:34.034Z,100.00
2023-03-26T08:05:27.353Z,100.00
2023-03-26T08:08:27.742Z,100.00
2023-03-26T08:11:18.896Z,100.00
2023-03-26T08:13:57.275Z,100.00
2023-03-26T08:16:30.124Z,100.00
2023-03-26T08:19:04.496Z,100.00
2023-03-26T08:21:34.857Z,100.00
2023-03-26T08:24:11.916Z,100.00
2023-03-26T08:26:44.462Z,100.00
2023-03-26T08:29:19.676Z,100.00
2023-03-26T08:31:49.550Z,100.00
2023-03-26T08:34:17.591Z,100.00
2023-03-26T08:36:46.175Z,100.00
2023-03-26T08:39:16.025Z,100.00
2023-03-26T08:42:02.683Z,100.00
2023-03-26T08:44:55.932Z,100.00
2023-03-26T08:47:41.710Z,100.00
2023-03-26T08:50:27.118Z,100.00
2023-03-26T08:53:15.268Z,100.00
2023-03-26T08:55:51.103Z,100.00
2023-03-26T08:58:34.928Z,100.00
2023-03-26T09:01:26.763Z,100.00
2023-03-26T09:04:04.487Z,100.00
2023-03-26T09:06:48.004Z,100.00
2023-03-26T09:09:40.949Z,100.00
2023-03-26T09:12:22.484Z,100.00
2023-03-26T09:15:05.987Z,100.00
2023-03-26T09:18:00.609Z,100.00
2023-03-26T09:20:45.464Z,100.00
2023-03-26T09:23:31.301Z,100.00
2023-03-26T09:26:11.661Z,100.00
2023-03-26T09:29:06.626Z,100.00
2023-03-26T09:31:47.393Z,100.00
2023-03-26T09:34:30.178Z,100.00
2023-03-26T09:37:06.364Z,100.00
2023-03-26T09:39:39.674Z,100.00
2023-03-26T09:42:16.286Z,100.00
2023-03-26T09:45:05.250Z,100.00
2023-03-26T09:47:53.955Z,100.00
2023-03-26T09:50:36.687Z,100.00
2023-03-26T09:53:17.133Z,100.00
2023-03-26T09:56:04.703Z,100.00
2023-03-26T09:58:42.671Z,100.00
2023-03-26T10:01:20.624Z,100.00
2023-03-26T10:03:54.176Z,100.00
2023-03-26T10:06:42.544Z,100.00
2023-03-26T10:09:30.576Z,100.00
2023-03-26T10:12:18.521Z,100.00
2023-03-26T10:14:57.298Z,100.00
2023-03-26T10:17:35.824Z,100.00
2023-03-26T10:20:18.362Z,100.00
2023-03-26T10:22:53.120Z,100.00
2023-03-26T10:25:32.109Z,100.00
2023-03-26T10:28:10.945Z,100.00
2023-03-26T10:30:55.399Z,100.00
2023-03-26T10:33:31.248Z,100.00
2023-03-26T10:36:13.755Z,100.00
2023-03-26T10:38:53.111Z,99.93
2023-03-26T10:41:30.669Z,89.90
2023-03-26T10:44:10.732Z,79.50
2023-03-26T10:47:04.616Z,76.18
2023-03-26T10:50:03.065Z,95.43
2023-03-26T10:52:36.236Z,100.00
2023-03-26T10:55:09.592Z,100.00
2023-03-26T10:57:43.442Z,100.00
2023-03-26T11:00:16.103Z,100.00
2023-03-26T11:02:47.852Z,99.85
2023-03-26T11:05:25.729Z,91.72
2023-03-26T11:08:00.777Z,84.94
2023-03-26T11:10:34.369Z,73.95
2023-03-26T11:13:10.219Z,65.71
2023-03-26T11:15:39.842Z,56.70
2023-03-26T11:18:14.431Z,59.05
2023-03-26T11:20:46.330Z,48.15
2023-03-26T11:23:25.843Z,43.95
2023-03-26T11:26:04.876Z,51.91
2023-03-26T11:28:41.528Z,70.71
2023-03-26T11:31:34.858Z,96.76
2023-03-26T11:34:06.541Z,100.00
2023-03-26T11:36:37.795Z,100.00
2023-03-26T11:39:08.794Z,100.00
2023-03-26T11:41:37.054Z,100.00
2023-03-26T11:44:18.012Z,100.00
2023-03-26T11:46:48.167Z,100.00
2023-03-26T11:49:25.008Z,100.00
2023-03-26T11:51:54.421Z,100.00
2023-03-26T11:54:22.609Z,100.00
2023-03-26T11:57:06.061Z,100.00
2023-03-26T11:59:55.674Z,100.00
2023-03-26T12:02:26.578Z,100.00
2023-03-26T12:05:08.087Z,100.00
2023-03-26T12:07:37.633Z,100.00
2023-03-26T12:10:18.347Z,100.00
2023-03-26T12:12:48.060Z,100.00
2023-03-26T12:15:22.150Z,100.00
2023-03-26T12:17:54.620Z,99.69
2023-03-26T12:20:38.926Z,75.48
2023-03-26T12:23:08.296Z,50.62
2023-03-26T12:25:37.848Z,53.39
2023-03-26T12:28:13.341Z,76.36
2023-03-26T12:30:45.219Z,93.90
2023-03-26T12:33:16.239Z,100.00
2023-03-26T12:35:44.859Z,84.53
2023-03-26T12:38:17.205Z,100.00
2023-03-26T12:40:45.923Z,100.00
2023-03-26T12:44:56.641Z,100.00
2023-03-26T12:47:57.448Z,100.00
2023-03-26T12:49:13.186Z,100.00
2023-03-26T12:51:48.320Z,100.00
2023-03-26T12:54:24.972Z,90.35
2023-03-26T12:57:12.655Z,92.83
2023-03-26T12:59:54.259Z,91.31
2023-03-26T13:02:45.306Z,87.89
2023-03-26T13:05:24.901Z,93.02
2023-03-26T13:07:59.165Z,90.81
2023-03-26T13:10:48.614Z,92.57
2023-03-26T13:13:28.704Z,80.09
2023-03-26T13:16:00.873Z,64.01
2023-03-26T13:18:37.245Z,64.35
2023-03-26T13:21:08.333Z,60.93
2023-03-26T13:23:45.011Z,55.07
2023-03-26T13:26:18.133Z,61.05
2023-03-26T13:28:53.168Z,51.39
2023-03-26T13:31:25.499Z,55.26
2023-03-26T13:34:00.953Z,56.95
2023-03-26T13:36:36.762Z,69.07
2023-03-26T13:39:16.372Z,78.84
2023-03-26T13:41:52.642Z,86.97
2023-03-26T13:44:28.681Z,83.89
2023-03-26T13:47:01.893Z,90.54
2023-03-26T13:49:37.529Z,78.21
2023-03-26T13:52:10.586Z,77.75
2023-03-26T13:54:42.126Z,76.27
2023-03-26T13:57:15.110Z,76.63
2023-03-26T13:59:50.112Z,80.14
2023-03-26T14:02:25.293Z,79.79
2023-03-26T14:04:58.540Z,79.29
2023-03-26T14:07:28.941Z,77.37
2023-03-26T14:10:01.217Z,80.04
2023-03-26T14:12:34.908Z,80.62
2023-03-26T14:15:05.915Z,84.58
2023-03-26T14:17:38.705Z,79.84
2023-03-26T14:20:30.611Z,80.77
2023-03-26T14:23:06.986Z,77.75
2023-03-26T14:25:44.645Z,78.85
2023-03-26T14:28:22.691Z,68.62
2023-03-26T14:31:09.953Z,67.28
2023-03-26T14:33:55.303Z,60.73
2023-03-26T14:36:33.382Z,59.09
2023-03-26T14:39:18.953Z,57.89
2023-03-26T14:41:51.992Z,53.89
2023-03-26T14:44:48.684Z,53.37
2023-03-26T14:47:20.679Z,55.57
2023-03-26T14:50:20.440Z,63.89
2023-03-26T14:52:52.002Z,69.44
2023-03-26T14:55:31.286Z,72.77
2023-03-26T14:58:22.274Z,72.49
2023-03-26T15:01:11.043Z,74.93
2023-03-26T15:04:04.909Z,75.02
2023-03-26T15:06:52.479Z,71.50
2023-03-26T15:09:37.364Z,70.01
2023-03-26T15:12:13.410Z,68.01
2023-03-26T15:15:04.630Z,70.20
2023-03-26T15:17:47.640Z,71.36
2023-03-26T15:20:45.987Z,71.70
2023-03-26T15:23:39.283Z,72.42
2023-03-26T15:26:25.863Z,71.41
2023-03-26T15:29:19.101Z,72.07
2023-03-26T15:31:58.767Z,71.70
2023-03-26T15:34:45.101Z,71.81
2023-03-26T15:37:24.502Z,72.07
2023-03-26T15:40:08.385Z,72.94
2023-03-26T15:42:44.863Z,78.24
2023-03-26T15:45:27.762Z,100.00
2023-03-26T15:48:11.156Z,100.00
2023-03-26T15:50:48.201Z,100.00
2023-03-26T15:53:23.751Z,100.00
2023-03-26T15:56:03.260Z,100.00
2023-03-26T15:58:37.695Z,100.00
2023-03-26T16:01:19.232Z,100.00
2023-03-26T16:03:58.552Z,100.00
2023-03-26T16:06:41.673Z,100.00
2023-03-26T16:09:21.148Z,100.00
2023-03-26T16:11:52.139Z,100.00
2023-03-26T16:14:23.707Z,100.00
2023-03-26T16:16:57.295Z,100.00
2023-03-26T16:19:48.156Z,100.00
2023-03-26T16:22:23.446Z,100.00
2023-03-26T16:25:27.427Z,100.00
2023-03-26T16:28:20.423Z,100.00
2023-03-26T16:31:23.602Z,100.00
2023-03-26T16:34:01.506Z,100.00
2023-03-26T16:36:36.936Z,100.00
2023-03-26T16:39:18.708Z,100.00
2023-03-26T16:42:05.668Z,100.00
2023-03-26T16:44:49.500Z,100.00
2023-03-26T16:47:22.364Z,100.00
2023-03-26T16:50:07.767Z,100.00
2023-03-26T16:52:45.789Z,100.00
2023-03-26T16:55:18.987Z,100.00
2023-03-26T16:57:51.353Z,100.00
2023-03-26T17:00:37.202Z,100.00
2023-03-26T17:03:16.996Z,100.00
2023-03-26T17:05:53.032Z,100.00
2023-03-26T17:08:36.305Z,100.00
2023-03-26T17:11:12.316Z,100.00
2023-03-26T17:13:45.494Z,100.00
2023-03-26T17:16:16.239Z,100.00
2023-03-26T17:18:49.184Z,100.00
2023-03-26T17:21:25.585Z,100.00
2023-03-26T17:24:04.356Z,100.00
2023-03-26T17:26:42.257Z,100.00
2023-03-26T17:29:35.412Z,100.00
2023-03-26T17:32:09.118Z,100.00
2023-03-26T17:34:47.073Z,100.00
2023-03-26T17:37:34.234Z,100.00
2023-03-26T17:40:23.106Z,100.00
2023-03-26T17:43:03.774Z,100.00
2023-03-26T17:45:35.313Z,100.00
2023-03-26T17:48:06.680Z,100.00
2023-03-26T17:50:37.472Z,100.00
2023-03-26T17:53:08.497Z,100.00
2023-03-26T17:55:39.307Z,100.00
2023-03-26T17:58:21.967Z,100.00
2023-03-26T18:00:54.585Z,100.00
2023-03-26T18:03:29.646Z,100.00
2023-03-26T18:06:08.352Z,100.00
2023-03-26T18:08:53.481Z,100.00
2023-03-26T18:11:39.424Z,100.00
2023-03-26T18:14:19.043Z,100.00
2023-03-26T18:16:52.460Z,100.00
2023-03-26T18:19:23.129Z,100.00
2023-03-26T18:21:52.637Z,100.00
2023-03-26T18:24:24.421Z,100.00
2023-03-26T18:26:55.436Z,100.00
2023-03-26T18:29:26.578Z,100.00
2023-03-26T18:32:01.036Z,100.00
2023-03-26T18:34:31.772Z,100.00
2023-03-26T18:37:15.510Z,100.00
2023-03-26T18:39:45.461Z,100.00
2023-03-26T18:42:24.336Z,100.00
2023-03-26T18:44:59.722Z,100.00
2023-03-26T18:47:32.048Z,100.00
2023-03-26T18:50:02.222Z,100.00
2023-03-26T18:52:32.139Z,100.00
2023-03-26T18:55:00.386Z,100.00
2023-03-26T18:57:30.638Z,100.00
2023-03-26T19:00:16.459Z,100.00
2023-03-26T19:02:51.080Z,100.00
2023-03-26T19:05:23.705Z,100.00
2023-03-26T19:07:52.512Z,100.00
2023-03-26T19:10:22.842Z,100.00
2023-03-26T19:12:58.315Z,100.00
2023-03-26T19:15:30.886Z,100.00
2023-03-26T19:18:07.096Z,100.00
2023-03-26T19:20:40.233Z,100.00
2023-03-26T19:23:09.768Z,100.00
2023-03-26T19:25:43.372Z,100.00
2023-03-26T19:28:17.331Z,100.00
2023-03-26T19:30:48.041Z,100.00
2023-03-26T19:33:18.889Z,100.00
2023-03-26T19:35:49.864Z,100.00
2023-03-26T19:38:23.934Z,100.00
2023-03-26T19:40:54.938Z,100.00
2023-03-26T19:43:23.813Z,100.00
2023-03-26T19:45:59.322Z,100.00
2023-03-26T19:48:45.760Z,100.00
2023-03-26T19:51:20.388Z,100.00
2023-03-26T19:53:50.913Z,100.00
2023-03-26T19:56:21.092Z,100.00
2023-03-26T19:58:53.168Z,100.00
2023-03-26T20:01:24.019Z,100.00
2023-03-26T20:03:53.544Z,100.00
2023-03-26T20:06:30.885Z,100.00
2023-03-26T20:09:02.498Z,100.00
2023-03-26T20:11:33.420Z,100.00
2023-03-26T20:14:02.082Z,100.00
2023-03-26T20:16:32.490Z,100.00
2023-03-26T20:19:02.582Z,100.00
2023-03-26T20:21:32.447Z,100.00
2023-03-26T20:24:01.216Z,100.00
2023-03-26T20:26:32.736Z,100.00
2023-03-26T20:29:00.683Z,100.00
2023-03-26T20:31:30.454Z,100.00
2023-03-26T20:34:02.374Z,100.00
2023-03-26T20:36:33.965Z,100.00
2023-03-26T20:39:06.647Z,100.00
2023-03-26T20:41:35.594Z,100.00
2023-03-26T20:44:05.059Z,100.00
2023-03-26T20:46:33.357Z,100.00
2023-03-26T20:49:03.602Z,100.00
2023-03-26T20:51:32.665Z,100.00
2023-03-26T20:54:01.973Z,100.00
2023-03-26T20:56:30.235Z,100.00
2023-03-26T21:01:30.504Z,100.00
2023-03-26T21:03:58.969Z,100.00
2023-03-26T21:06:28.769Z,100.00
2023-03-26T21:08:57.865Z,100.00
2023-03-26T21:11:30.833Z,100.00
2023-03-26T21:14:02.294Z,100.00
2023-03-26T21:16:30.817Z,100.00
2023-03-26T21:18:59.598Z,100.00
2023-03-26T21:21:43.159Z,100.00
2023-03-26T21:24:15.935Z,100.00
2023-03-26T21:26:45.632Z,100.00
2023-03-26T21:29:14.797Z,100.00
2023-03-26T21:31:43.239Z,100.00
2023-03-26T21:34:13.292Z,100.00
2023-03-26T21:36:45.354Z,100.00
2023-03-26T21:39:13.583Z,100.00
2023-03-26T21:41:44.949Z,100.00
2023-03-26T21:44:14.322Z,100.00
2023-03-26T21:46:45.878Z,100.00
2023-03-26T21:49:14.950Z,100.00
2023-03-26T21:51:45.457Z,100.00
2023-03-26T21:54:25.597Z,100.00
2023-03-26T21:56:58.904Z,100.00
2023-03-26T21:59:32.552Z,100.00
2023-03-26T22:02:04.169Z,100.00
2023-03-26T22:04:37.059Z,100.00
2023-03-26T22:07:11.047Z,100.00
2023-03-26T22:09:39.354Z,100.00
2023-03-26T22:12:07.370Z,100.00
2023-03-26T22:14:38.229Z,100.00
2023-03-26T22:17:06.723Z,100.00
2023-03-26T22:19:36.443Z,100.00
2023-03-26T22:22:05.002Z,100.00
2023-03-26T22:24:34.444Z,100.00
2023-03-26T22:27:02.543Z,100.00
2023-03-26T22:29:30.769Z,100.00
2023-03-26T22:31:59.046Z,100.00
2023-03-26T22:34:27.240Z,100.00
2023-03-26T22:36:55.426Z,100.00
2023-03-26T22:39:23.825Z,100.00
2023-03-26T22:41:53.228Z,100.00
2023-03-26T22:44:21.482Z,100.00
2023-03-26T22:46:51.737Z,100.00
2023-03-26T22:49:19.844Z,100.00
2023-03-26T22:51:49.264Z,100.00
2023-03-26T22:54:17.574Z,100.00
2023-03-26T22:56:45.940Z,100.00
2023-03-26T22:59:16.292Z,100.00
2023-03-26T23:01:44.447Z,100.00
2023-03-26T23:04:31.554Z,100.00
2023-03-26T23:07:02.432Z,100.00
2023-03-26T23:09:31.243Z,100.00
2023-03-26T23:12:01.865Z,100.00
2023-03-26T23:14:35.036Z,100.00
2023-03-26T23:17:03.685Z,100.00
2023-03-26T23:19:40.904Z,100.00
2023-03-26T23:22:09.753Z,100.00
2023-03-26T23:24:38.263Z,100.00
2023-03-26T23:27:09.354Z,100.00
2023-03-26T23:29:38.800Z,100.00
2023-03-26T23:32:24.227Z,100.00
2023-03-26T23:34:52.971Z,100.00
2023-03-26T23:37:23.603Z,100.00
2023-03-26T23:39:51.764Z,100.00
2023-03-26T23:42:28.297Z,100.00
2023-03-26T23:44:59.155Z,100.00
2023-03-26T23:47:34.605Z,100.00
2023-03-26T23:50:03.676Z,100.00
2023-03-26T23:52:33.852Z,100.00
2023-03-26T23:55:08.350Z,100.00
2023-03-26T23:57:40.000Z,100.00
